sensor_id;sensor_type;location;lat;lon;timestamp;P1;durP1;ratioP1;P2;durP2;ratioP2
7795;SDS011;3942;51.518;6.912;2022-12-18T00:01:31;84.95;;;36.22;;
7795;SDS011;3942;51.518;6.912;2022-12-18T00:06:36;66.05;;;31.60;;
7795;SDS011;3942;51.518;6.912;2022-12-18T00:11:38;69.43;;;30.50;;
7795;SDS011;3942;51.518;6.912;2022-12-18T00:16:40;88.07;;;40.92;;
7795;SDS011;3942;51.518;6.912;2022-12-18T00:21:46;167.60;;;60.65;;
7795;SDS011;3942;51.518;6.912;2022-12-18T00:26:48;85.00;;;37.05;;
7795;SDS011;3942;51.518;6.912;2022-12-18T00:31:50;92.22;;;39.42;;
7795;SDS011;3942;51.518;6.912;2022-12-18T00:36:53;107.95;;;44.28;;
7795;SDS011;3942;51.518;6.912;2022-12-18T00:41:55;79.30;;;35.47;;
7795;SDS011;3942;51.518;6.912;2022-12-18T00:47:14;79.78;;;34.78;;
7795;SDS011;3942;51.518;6.912;2022-12-18T00:52:17;69.07;;;31.05;;
7795;SDS011;3942;51.518;6.912;2022-12-18T00:57:19;72.00;;;31.45;;
7795;SDS011;3942;51.518;6.912;2022-12-18T01:02:21;70.03;;;31.27;;
7795;SDS011;3942;51.518;6.912;2022-12-18T01:07:24;77.88;;;33.72;;
7795;SDS011;3942;51.518;6.912;2022-12-18T01:12:26;75.00;;;32.95;;
7795;SDS011;3942;51.518;6.912;2022-12-18T01:17:28;71.57;;;30.13;;
7795;SDS011;3942;51.518;6.912;2022-12-18T01:22:31;78.05;;;33.75;;
7795;SDS011;3942;51.518;6.912;2022-12-18T01:27:33;79.28;;;33.30;;
7795;SDS011;3942;51.518;6.912;2022-12-18T01:32:36;61.72;;;27.98;;
7795;SDS011;3942;51.518;6.912;2022-12-18T01:37:39;77.43;;;32.58;;
7795;SDS011;3942;51.518;6.912;2022-12-18T01:42:41;76.47;;;30.52;;
7795;SDS011;3942;51.518;6.912;2022-12-18T01:47:44;53.22;;;24.90;;
7795;SDS011;3942;51.518;6.912;2022-12-18T01:52:50;83.57;;;31.67;;
7795;SDS011;3942;51.518;6.912;2022-12-18T01:57:53;82.80;;;36.53;;
7795;SDS011;3942;51.518;6.912;2022-12-18T02:02:57;75.75;;;33.33;;
7795;SDS011;3942;51.518;6.912;2022-12-18T02:08:02;72.45;;;30.33;;
7795;SDS011;3942;51.518;6.912;2022-12-18T02:13:10;96.88;;;36.88;;
7795;SDS011;3942;51.518;6.912;2022-12-18T02:18:16;82.93;;;33.97;;
7795;SDS011;3942;51.518;6.912;2022-12-18T02:23:28;80.88;;;32.60;;
7795;SDS011;3942;51.518;6.912;2022-12-18T02:28:49;76.07;;;29.15;;
7795;SDS011;3942;51.518;6.912;2022-12-18T02:33:55;73.40;;;30.40;;
7795;SDS011;3942;51.518;6.912;2022-12-18T02:38:58;75.60;;;30.70;;
7795;SDS011;3942;51.518;6.912;2022-12-18T02:44:08;77.88;;;34.65;;
7795;SDS011;3942;51.518;6.912;2022-12-18T02:49:16;83.18;;;32.60;;
7795;SDS011;3942;51.518;6.912;2022-12-18T02:54:37;78.65;;;31.92;;
7795;SDS011;3942;51.518;6.912;2022-12-18T02:59:56;69.53;;;32.55;;
7795;SDS011;3942;51.518;6.912;2022-12-18T03:05:04;64.07;;;27.08;;
7795;SDS011;3942;51.518;6.912;2022-12-18T03:10:13;62.60;;;27.80;;
7795;SDS011;3942;51.518;6.912;2022-12-18T03:15:20;57.90;;;26.15;;
7795;SDS011;3942;51.518;6.912;2022-12-18T03:20:25;62.08;;;23.75;;
7795;SDS011;3942;51.518;6.912;2022-12-18T03:25:30;66.20;;;26.95;;
7795;SDS011;3942;51.518;6.912;2022-12-18T03:30:35;67.40;;;29.20;;
7795;SDS011;3942;51.518;6.912;2022-12-18T03:35:41;69.80;;;29.92;;
7795;SDS011;3942;51.518;6.912;2022-12-18T03:40:46;66.20;;;28.75;;
7795;SDS011;3942;51.518;6.912;2022-12-18T03:45:54;70.83;;;27.20;;
7795;SDS011;3942;51.518;6.912;2022-12-18T03:51:05;64.20;;;28.27;;
7795;SDS011;3942;51.518;6.912;2022-12-18T03:56:08;57.08;;;23.30;;
7795;SDS011;3942;51.518;6.912;2022-12-18T04:01:13;62.30;;;27.48;;
7795;SDS011;3942;51.518;6.912;2022-12-18T04:06:17;49.53;;;21.67;;
7795;SDS011;3942;51.518;6.912;2022-12-18T04:11:20;45.92;;;19.85;;
7795;SDS011;3942;51.518;6.912;2022-12-18T04:16:23;56.90;;;23.17;;
7795;SDS011;3942;51.518;6.912;2022-12-18T04:21:25;53.15;;;26.58;;
7795;SDS011;3942;51.518;6.912;2022-12-18T04:26:27;70.57;;;24.80;;
7795;SDS011;3942;51.518;6.912;2022-12-18T04:31:31;52.45;;;24.08;;
7795;SDS011;3942;51.518;6.912;2022-12-18T04:36:33;44.65;;;21.38;;
7795;SDS011;3942;51.518;6.912;2022-12-18T04:41:35;44.70;;;21.92;;
7795;SDS011;3942;51.518;6.912;2022-12-18T04:46:38;44.30;;;19.83;;
7795;SDS011;3942;51.518;6.912;2022-12-18T04:51:40;55.45;;;24.10;;
7795;SDS011;3942;51.518;6.912;2022-12-18T04:56:42;46.67;;;21.17;;
7795;SDS011;3942;51.518;6.912;2022-12-18T05:01:45;55.45;;;25.40;;
7795;SDS011;3942;51.518;6.912;2022-12-18T05:06:47;49.05;;;21.88;;
7795;SDS011;3942;51.518;6.912;2022-12-18T05:11:50;46.53;;;20.92;;
7795;SDS011;3942;51.518;6.912;2022-12-18T05:16:53;31.08;;;14.98;;
7795;SDS011;3942;51.518;6.912;2022-12-18T05:21:56;40.88;;;16.25;;
7795;SDS011;3942;51.518;6.912;2022-12-18T05:26:58;31.83;;;14.38;;
7795;SDS011;3942;51.518;6.912;2022-12-18T05:32:02;51.97;;;24.02;;
7795;SDS011;3942;51.518;6.912;2022-12-18T05:37:04;36.58;;;17.63;;
7795;SDS011;3942;51.518;6.912;2022-12-18T05:42:06;39.03;;;17.02;;
7795;SDS011;3942;51.518;6.912;2022-12-18T05:47:10;37.65;;;15.05;;
7795;SDS011;3942;51.518;6.912;2022-12-18T05:52:12;37.55;;;16.30;;
7795;SDS011;3942;51.518;6.912;2022-12-18T05:57:14;33.25;;;17.20;;
7795;SDS011;3942;51.518;6.912;2022-12-18T06:02:17;31.63;;;16.52;;
7795;SDS011;3942;51.518;6.912;2022-12-18T06:07:20;37.70;;;15.48;;
7795;SDS011;3942;51.518;6.912;2022-12-18T06:12:22;35.40;;;16.73;;
7795;SDS011;3942;51.518;6.912;2022-12-18T06:17:28;37.47;;;20.30;;
7795;SDS011;3942;51.518;6.912;2022-12-18T06:22:30;43.03;;;19.63;;
7795;SDS011;3942;51.518;6.912;2022-12-18T06:27:32;31.67;;;13.90;;
7795;SDS011;3942;51.518;6.912;2022-12-18T06:32:36;40.42;;;16.33;;
7795;SDS011;3942;51.518;6.912;2022-12-18T06:37:38;34.28;;;16.25;;
7795;SDS011;3942;51.518;6.912;2022-12-18T06:42:40;38.95;;;15.68;;
7795;SDS011;3942;51.518;6.912;2022-12-18T06:47:43;31.85;;;18.67;;
7795;SDS011;3942;51.518;6.912;2022-12-18T06:52:45;37.33;;;17.45;;
7795;SDS011;3942;51.518;6.912;2022-12-18T06:57:47;27.35;;;14.65;;
7795;SDS011;3942;51.518;6.912;2022-12-18T07:02:51;40.75;;;15.63;;
7795;SDS011;3942;51.518;6.912;2022-12-18T07:07:53;30.17;;;14.68;;
7795;SDS011;3942;51.518;6.912;2022-12-18T07:12:55;33.42;;;15.93;;
7795;SDS011;3942;51.518;6.912;2022-12-18T07:17:58;37.00;;;17.00;;
7795;SDS011;3942;51.518;6.912;2022-12-18T07:23:01;31.33;;;16.02;;
7795;SDS011;3942;51.518;6.912;2022-12-18T07:28:03;41.00;;;17.98;;
7795;SDS011;3942;51.518;6.912;2022-12-18T07:33:07;27.30;;;12.60;;
7795;SDS011;3942;51.518;6.912;2022-12-18T07:38:09;38.65;;;17.73;;
7795;SDS011;3942;51.518;6.912;2022-12-18T07:43:11;20.45;;;11.65;;
7795;SDS011;3942;51.518;6.912;2022-12-18T07:48:15;28.50;;;13.18;;
7795;SDS011;3942;51.518;6.912;2022-12-18T07:53:17;19.83;;;10.50;;
7795;SDS011;3942;51.518;6.912;2022-12-18T07:58:19;35.03;;;16.67;;
7795;SDS011;3942;51.518;6.912;2022-12-18T08:03:22;39.70;;;16.42;;
7795;SDS011;3942;51.518;6.912;2022-12-18T08:08:24;39.05;;;17.48;;
7795;SDS011;3942;51.518;6.912;2022-12-18T08:13:26;37.03;;;18.60;;
7795;SDS011;3942;51.518;6.912;2022-12-18T08:18:31;37.72;;;18.08;;
7795;SDS011;3942;51.518;6.912;2022-12-18T08:23:33;31.73;;;15.98;;
7795;SDS011;3942;51.518;6.912;2022-12-18T08:28:35;38.97;;;17.80;;
7795;SDS011;3942;51.518;6.912;2022-12-18T08:33:39;24.83;;;13.85;;
7795;SDS011;3942;51.518;6.912;2022-12-18T08:38:42;42.83;;;18.60;;
7795;SDS011;3942;51.518;6.912;2022-12-18T08:43:44;49.20;;;21.08;;
7795;SDS011;3942;51.518;6.912;2022-12-18T08:49:05;28.67;;;14.27;;
7795;SDS011;3942;51.518;6.912;2022-12-18T08:55:34;29.75;;;15.57;;
7795;SDS011;3942;51.518;6.912;2022-12-18T09:00:36;27.35;;;13.02;;
7795;SDS011;3942;51.518;6.912;2022-12-18T09:05:38;28.02;;;12.85;;
7795;SDS011;3942;51.518;6.912;2022-12-18T09:10:45;25.58;;;13.00;;
7795;SDS011;3942;51.518;6.912;2022-12-18T09:15:47;18.90;;;10.45;;
7795;SDS011;3942;51.518;6.912;2022-12-18T09:20:50;11.32;;;6.75;;
7795;SDS011;3942;51.518;6.912;2022-12-18T09:25:59;15.25;;;9.38;;
7795;SDS011;3942;51.518;6.912;2022-12-18T09:31:03;25.10;;;12.82;;
7795;SDS011;3942;51.518;6.912;2022-12-18T09:36:07;30.77;;;14.93;;
7795;SDS011;3942;51.518;6.912;2022-12-18T09:41:17;25.60;;;14.48;;
7795;SDS011;3942;51.518;6.912;2022-12-18T09:46:39;28.92;;;12.95;;
7795;SDS011;3942;51.518;6.912;2022-12-18T09:51:43;22.73;;;12.98;;
7795;SDS011;3942;51.518;6.912;2022-12-18T09:56:49;36.63;;;17.42;;
7795;SDS011;3942;51.518;6.912;2022-12-18T10:01:51;36.55;;;16.40;;
7795;SDS011;3942;51.518;6.912;2022-12-18T10:06:54;29.65;;;15.90;;
7795;SDS011;3942;51.518;6.912;2022-12-18T10:12:07;28.10;;;13.65;;
7795;SDS011;3942;51.518;6.912;2022-12-18T10:17:13;29.33;;;15.32;;
7795;SDS011;3942;51.518;6.912;2022-12-18T10:22:21;34.15;;;18.10;;
7795;SDS011;3942;51.518;6.912;2022-12-18T10:27:26;32.92;;;17.75;;
7795;SDS011;3942;51.518;6.912;2022-12-18T10:32:29;31.23;;;16.77;;
7795;SDS011;3942;51.518;6.912;2022-12-18T10:37:31;27.27;;;14.32;;
7795;SDS011;3942;51.518;6.912;2022-12-18T10:42:34;29.77;;;15.70;;
7795;SDS011;3942;51.518;6.912;2022-12-18T10:47:37;29.73;;;14.90;;
7795;SDS011;3942;51.518;6.912;2022-12-18T10:52:43;28.23;;;14.80;;
7795;SDS011;3942;51.518;6.912;2022-12-18T10:57:46;29.15;;;15.40;;
7795;SDS011;3942;51.518;6.912;2022-12-18T11:02:48;24.88;;;14.00;;
7795;SDS011;3942;51.518;6.912;2022-12-18T11:07:51;24.30;;;13.43;;
7795;SDS011;3942;51.518;6.912;2022-12-18T11:12:55;31.33;;;12.85;;
7795;SDS011;3942;51.518;6.912;2022-12-18T11:17:57;32.35;;;13.93;;
7795;SDS011;3942;51.518;6.912;2022-12-18T11:23:00;23.52;;;13.10;;
7795;SDS011;3942;51.518;6.912;2022-12-18T11:28:05;27.30;;;13.13;;
7795;SDS011;3942;51.518;6.912;2022-12-18T11:33:09;25.10;;;14.07;;
7795;SDS011;3942;51.518;6.912;2022-12-18T11:38:17;33.78;;;17.92;;
7795;SDS011;3942;51.518;6.912;2022-12-18T11:43:25;38.47;;;20.60;;
7795;SDS011;3942;51.518;6.912;2022-12-18T11:48:28;31.48;;;17.30;;
7795;SDS011;3942;51.518;6.912;2022-12-18T11:53:31;29.58;;;15.93;;
7795;SDS011;3942;51.518;6.912;2022-12-18T11:58:41;31.30;;;17.23;;
7795;SDS011;3942;51.518;6.912;2022-12-18T12:09:06;28.88;;;13.95;;
7795;SDS011;3942;51.518;6.912;2022-12-18T12:14:17;31.77;;;16.38;;
7795;SDS011;3942;51.518;6.912;2022-12-18T12:19:35;41.47;;;18.05;;
7795;SDS011;3942;51.518;6.912;2022-12-18T12:24:39;28.42;;;15.95;;
7795;SDS011;3942;51.518;6.912;2022-12-18T12:29:55;33.97;;;15.90;;
7795;SDS011;3942;51.518;6.912;2022-12-18T12:35:05;32.30;;;16.45;;
7795;SDS011;3942;51.518;6.912;2022-12-18T12:40:11;143.13;;;67.05;;
7795;SDS011;3942;51.518;6.912;2022-12-18T12:45:18;33.13;;;17.05;;
7795;SDS011;3942;51.518;6.912;2022-12-18T12:50:23;29.15;;;16.63;;
7795;SDS011;3942;51.518;6.912;2022-12-18T12:55:26;34.38;;;16.35;;
7795;SDS011;3942;51.518;6.912;2022-12-18T13:00:34;24.30;;;13.18;;
7795;SDS011;3942;51.518;6.912;2022-12-18T13:05:38;28.17;;;14.50;;
7795;SDS011;3942;51.518;6.912;2022-12-18T13:10:42;14.52;;;8.73;;
7795;SDS011;3942;51.518;6.912;2022-12-18T13:15:46;24.58;;;11.77;;
7795;SDS011;3942;51.518;6.912;2022-12-18T13:20:49;21.15;;;10.73;;
7795;SDS011;3942;51.518;6.912;2022-12-18T13:36:53;15.55;;;8.10;;
7795;SDS011;3942;51.518;6.912;2022-12-18T13:47:49;13.50;;;7.00;;
7795;SDS011;3942;51.518;6.912;2022-12-18T13:52:52;13.98;;;7.90;;
7795;SDS011;3942;51.518;6.912;2022-12-18T13:58:02;12.00;;;6.57;;
7795;SDS011;3942;51.518;6.912;2022-12-18T14:03:15;16.15;;;8.18;;
7795;SDS011;3942;51.518;6.912;2022-12-18T14:08:20;15.27;;;7.70;;
7795;SDS011;3942;51.518;6.912;2022-12-18T14:13:24;16.52;;;9.75;;
7795;SDS011;3942;51.518;6.912;2022-12-18T14:18:29;16.00;;;8.48;;
7795;SDS011;3942;51.518;6.912;2022-12-18T14:23:36;16.70;;;9.15;;
7795;SDS011;3942;51.518;6.912;2022-12-18T14:28:42;17.50;;;9.15;;
7795;SDS011;3942;51.518;6.912;2022-12-18T14:33:45;20.08;;;9.73;;
7795;SDS011;3942;51.518;6.912;2022-12-18T14:38:50;12.77;;;6.88;;
7795;SDS011;3942;51.518;6.912;2022-12-18T14:43:54;14.40;;;8.05;;
7795;SDS011;3942;51.518;6.912;2022-12-18T14:48:56;21.25;;;13.15;;
7795;SDS011;3942;51.518;6.912;2022-12-18T14:54:00;14.02;;;7.75;;
7795;SDS011;3942;51.518;6.912;2022-12-18T14:59:04;17.55;;;9.80;;
7795;SDS011;3942;51.518;6.912;2022-12-18T15:04:21;17.73;;;9.25;;
7795;SDS011;3942;51.518;6.912;2022-12-18T15:09:25;13.50;;;7.63;;
7795;SDS011;3942;51.518;6.912;2022-12-18T15:14:32;20.02;;;9.27;;
7795;SDS011;3942;51.518;6.912;2022-12-18T15:19:36;17.92;;;8.45;;
7795;SDS011;3942;51.518;6.912;2022-12-18T15:24:40;22.25;;;9.68;;
7795;SDS011;3942;51.518;6.912;2022-12-18T15:29:42;15.05;;;7.70;;
7795;SDS011;3942;51.518;6.912;2022-12-18T15:34:45;11.45;;;5.25;;
7795;SDS011;3942;51.518;6.912;2022-12-18T15:39:48;19.17;;;9.25;;
7795;SDS011;3942;51.518;6.912;2022-12-18T15:44:50;15.35;;;8.85;;
7795;SDS011;3942;51.518;6.912;2022-12-18T15:49:52;16.85;;;6.97;;
7795;SDS011;3942;51.518;6.912;2022-12-18T15:54:56;19.02;;;7.93;;
7795;SDS011;3942;51.518;6.912;2022-12-18T16:00:15;10.52;;;6.45;;
7795;SDS011;3942;51.518;6.912;2022-12-18T16:05:18;18.17;;;9.73;;
7795;SDS011;3942;51.518;6.912;2022-12-18T16:10:23;17.65;;;9.32;;
7795;SDS011;3942;51.518;6.912;2022-12-18T16:15:25;27.15;;;11.52;;
7795;SDS011;3942;51.518;6.912;2022-12-18T16:20:28;22.10;;;10.43;;
7795;SDS011;3942;51.518;6.912;2022-12-18T16:25:31;20.08;;;11.50;;
7795;SDS011;3942;51.518;6.912;2022-12-18T16:30:33;23.50;;;12.25;;
7795;SDS011;3942;51.518;6.912;2022-12-18T16:35:35;22.58;;;12.50;;
7795;SDS011;3942;51.518;6.912;2022-12-18T16:40:38;26.70;;;13.50;;
7795;SDS011;3942;51.518;6.912;2022-12-18T16:46:01;26.73;;;14.27;;
7795;SDS011;3942;51.518;6.912;2022-12-18T16:51:04;19.67;;;9.23;;
7795;SDS011;3942;51.518;6.912;2022-12-18T16:56:07;23.10;;;11.80;;
7795;SDS011;3942;51.518;6.912;2022-12-18T17:01:09;16.33;;;8.40;;
7795;SDS011;3942;51.518;6.912;2022-12-18T17:06:12;26.42;;;13.32;;
7795;SDS011;3942;51.518;6.912;2022-12-18T17:11:15;31.85;;;14.18;;
7795;SDS011;3942;51.518;6.912;2022-12-18T17:16:17;25.92;;;12.38;;
7795;SDS011;3942;51.518;6.912;2022-12-18T17:21:19;22.40;;;11.10;;
7795;SDS011;3942;51.518;6.912;2022-12-18T17:26:22;17.15;;;9.75;;
7795;SDS011;3942;51.518;6.912;2022-12-18T17:31:25;16.25;;;9.15;;
7795;SDS011;3942;51.518;6.912;2022-12-18T17:36:28;31.00;;;14.50;;
7795;SDS011;3942;51.518;6.912;2022-12-18T17:41:32;10.35;;;5.75;;
7795;SDS011;3942;51.518;6.912;2022-12-18T17:46:35;24.40;;;11.70;;
7795;SDS011;3942;51.518;6.912;2022-12-18T17:51:37;21.95;;;9.57;;
7795;SDS011;3942;51.518;6.912;2022-12-18T17:56:42;25.83;;;12.82;;
7795;SDS011;3942;51.518;6.912;2022-12-18T18:01:44;27.02;;;14.80;;
7795;SDS011;3942;51.518;6.912;2022-12-18T18:06:46;21.45;;;9.80;;
7795;SDS011;3942;51.518;6.912;2022-12-18T18:11:50;24.45;;;11.18;;
7795;SDS011;3942;51.518;6.912;2022-12-18T18:17:09;21.58;;;9.77;;
7795;SDS011;3942;51.518;6.912;2022-12-18T18:22:11;29.60;;;15.20;;
7795;SDS011;3942;51.518;6.912;2022-12-18T18:27:15;29.95;;;15.70;;
7795;SDS011;3942;51.518;6.912;2022-12-18T18:32:17;27.83;;;15.55;;
7795;SDS011;3942;51.518;6.912;2022-12-18T18:37:19;24.13;;;12.43;;
7795;SDS011;3942;51.518;6.912;2022-12-18T18:42:22;23.15;;;10.13;;
7795;SDS011;3942;51.518;6.912;2022-12-18T18:47:24;30.52;;;14.98;;
7795;SDS011;3942;51.518;6.912;2022-12-18T18:52:26;26.27;;;13.23;;
7795;SDS011;3942;51.518;6.912;2022-12-18T18:57:30;34.80;;;16.40;;
7795;SDS011;3942;51.518;6.912;2022-12-18T19:02:32;35.70;;;16.40;;
7795;SDS011;3942;51.518;6.912;2022-12-18T19:07:34;18.60;;;9.52;;
7795;SDS011;3942;51.518;6.912;2022-12-18T19:12:37;29.10;;;13.30;;
7795;SDS011;3942;51.518;6.912;2022-12-18T19:17:56;29.30;;;15.00;;
7795;SDS011;3942;51.518;6.912;2022-12-18T19:22:58;28.73;;;13.30;;
7795;SDS011;3942;51.518;6.912;2022-12-18T19:28:02;23.60;;;11.60;;
7795;SDS011;3942;51.518;6.912;2022-12-18T19:33:04;33.70;;;15.50;;
7795;SDS011;3942;51.518;6.912;2022-12-18T19:38:06;27.02;;;12.20;;
7795;SDS011;3942;51.518;6.912;2022-12-18T19:43:10;38.50;;;18.27;;
7795;SDS011;3942;51.518;6.912;2022-12-18T19:48:12;38.60;;;15.32;;
7795;SDS011;3942;51.518;6.912;2022-12-18T19:53:14;18.25;;;8.70;;
7795;SDS011;3942;51.518;6.912;2022-12-18T19:58:18;28.90;;;11.70;;
7795;SDS011;3942;51.518;6.912;2022-12-18T20:03:20;31.67;;;13.75;;
7795;SDS011;3942;51.518;6.912;2022-12-18T20:08:22;32.72;;;16.05;;
7795;SDS011;3942;51.518;6.912;2022-12-18T20:13:25;32.03;;;13.88;;
7795;SDS011;3942;51.518;6.912;2022-12-18T20:18:28;31.92;;;15.50;;
7795;SDS011;3942;51.518;6.912;2022-12-18T20:23:30;33.08;;;16.52;;
7795;SDS011;3942;51.518;6.912;2022-12-18T20:28:33;32.33;;;17.00;;
7795;SDS011;3942;51.518;6.912;2022-12-18T20:33:35;25.65;;;9.35;;
7795;SDS011;3942;51.518;6.912;2022-12-18T20:38:37;37.47;;;16.90;;
7795;SDS011;3942;51.518;6.912;2022-12-18T20:43:40;32.72;;;13.65;;
7795;SDS011;3942;51.518;6.912;2022-12-18T20:48:43;15.95;;;9.00;;
7795;SDS011;3942;51.518;6.912;2022-12-18T20:53:46;19.27;;;8.85;;
7795;SDS011;3942;51.518;6.912;2022-12-18T20:58:50;33.20;;;15.23;;
7795;SDS011;3942;51.518;6.912;2022-12-18T21:03:52;29.55;;;13.57;;
7795;SDS011;3942;51.518;6.912;2022-12-18T21:08:54;37.00;;;16.85;;
7795;SDS011;3942;51.518;6.912;2022-12-18T21:13:58;42.45;;;17.13;;
7795;SDS011;3942;51.518;6.912;2022-12-18T21:19:00;30.45;;;11.80;;
7795;SDS011;3942;51.518;6.912;2022-12-18T21:24:02;39.47;;;18.48;;
7795;SDS011;3942;51.518;6.912;2022-12-18T21:29:07;37.72;;;18.17;;
7795;SDS011;3942;51.518;6.912;2022-12-18T21:34:13;35.60;;;16.73;;
7795;SDS011;3942;51.518;6.912;2022-12-18T21:39:16;39.63;;;18.13;;
7795;SDS011;3942;51.518;6.912;2022-12-18T21:44:20;35.22;;;16.17;;
7795;SDS011;3942;51.518;6.912;2022-12-18T21:49:22;31.20;;;15.40;;
7795;SDS011;3942;51.518;6.912;2022-12-18T21:54:26;27.30;;;13.43;;
7795;SDS011;3942;51.518;6.912;2022-12-18T21:59:31;34.22;;;14.25;;
7795;SDS011;3942;51.518;6.912;2022-12-18T22:04:33;37.30;;;16.00;;
7795;SDS011;3942;51.518;6.912;2022-12-18T22:09:36;28.20;;;12.70;;
7795;SDS011;3942;51.518;6.912;2022-12-18T22:14:39;30.98;;;11.25;;
7795;SDS011;3942;51.518;6.912;2022-12-18T22:19:41;28.15;;;12.77;;
7795;SDS011;3942;51.518;6.912;2022-12-18T22:24:43;24.20;;;11.45;;
7795;SDS011;3942;51.518;6.912;2022-12-18T22:29:47;35.50;;;16.73;;
7795;SDS011;3942;51.518;6.912;2022-12-18T22:35:05;23.77;;;11.02;;
7795;SDS011;3942;51.518;6.912;2022-12-18T22:40:08;25.73;;;11.93;;
7795;SDS011;3942;51.518;6.912;2022-12-18T22:45:14;33.17;;;15.60;;
7795;SDS011;3942;51.518;6.912;2022-12-18T22:50:16;24.77;;;11.10;;
7795;SDS011;3942;51.518;6.912;2022-12-18T22:55:18;23.75;;;9.93;;
7795;SDS011;3942;51.518;6.912;2022-12-18T23:00:21;31.77;;;14.43;;
7795;SDS011;3942;51.518;6.912;2022-12-18T23:05:23;24.17;;;11.50;;
7795;SDS011;3942;51.518;6.912;2022-12-18T23:10:25;30.00;;;14.13;;
7795;SDS011;3942;51.518;6.912;2022-12-18T23:15:28;37.42;;;16.33;;
7795;SDS011;3942;51.518;6.912;2022-12-18T23:20:31;37.83;;;15.32;;
7795;SDS011;3942;51.518;6.912;2022-12-18T23:25:34;31.73;;;13.48;;
7795;SDS011;3942;51.518;6.912;2022-12-18T23:30:38;37.60;;;17.63;;
7795;SDS011;3942;51.518;6.912;2022-12-18T23:35:40;31.38;;;12.70;;
7795;SDS011;3942;51.518;6.912;2022-12-18T23:40:42;32.95;;;14.07;;
7795;SDS011;3942;51.518;6.912;2022-12-18T23:45:45;34.05;;;15.77;;
7795;SDS011;3942;51.518;6.912;2022-12-18T23:50:47;33.25;;;16.13;;
7795;SDS011;3942;51.518;6.912;2022-12-18T23:55:49;37.58;;;15.98;;
